Terminal Aerodrome Forecast
Issued by NWS

Home | Current Version | Previous Version | Text Only | Print | Product List | Glossary Off
Versions: 1 2 3 4 5 6 7 8 9 10 11 12 13 14 15 16 17 18 19 20 21 22 23 24

706
FTUS43 KABR 260528
TAFMBG
TAF
KMBG 260528Z 2606/2706 13007KT P6SM VCTS SCT070CB BKN150
     FM260900 16006KT P6SM VCTS SCT250CB
     FM261500 13009KT P6SM SCT250
     FM270000 08010KT P6SM -SHRA VCTS BKN090CB=

USA.gov is the U.S. government's official web portal to all federal, state and local government web resources and services.